Time;durP1;ratioP1;P1;durP2;ratioP2;P2;SDS_P1;SDS_P2;PMS_P1;PMS_P2;Temp;Humidity;BMP_temperature;BMP_pressure;BME280_temperature;BME280_humidity;BME280_pressure;Samples;Min_cycle;Max_cycle;Signal;HPM_P1;HPM_P2
2022/10/30 00:03:20;;;;;;;51.40;32.53;;;;;;;13.25;100.00;100964.80;3497873;83;33813;-89
2022/10/30 00:08:24;;;;;;;47.67;30.63;;;;;;;13.22;100.00;100970.51;3495239;83;99426;-89
2022/10/30 00:13:25;;;;;;;46.77;32.33;;;;;;;13.21;100.00;100968.92;3497702;83;33708;-88
2022/10/30 00:18:26;;;;;;;54.23;33.80;;;;;;;13.20;100.00;100967.92;3492250;83;99580;-90
2022/10/30 00:23:27;;;;;;;53.00;34.40;;;;;;;13.19;100.00;100959.42;3491555;83;33246;-88
2022/10/30 00:28:27;;;;;;;49.07;31.87;;;;;;;13.17;100.00;100951.50;3489671;83;99286;-89
2022/10/30 00:33:28;;;;;;;46.23;31.37;;;;;;;13.16;100.00;100938.06;3498942;83;33268;-89
2022/10/30 00:38:30;;;;;;;48.63;31.83;;;;;;;13.15;100.00;100954.45;3488723;83;99357;-89
2022/10/30 00:43:38;;;;;;;45.23;29.43;;;;;;;13.13;100.00;100949.30;3501668;83;33230;-89
2022/10/30 00:48:40;;;;;;;49.80;33.67;;;;;;;13.13;100.00;100940.23;3489616;83;99506;-89
2022/10/30 00:53:42;;;;;;;46.20;31.93;;;;;;;13.13;100.00;100937.46;3493822;83;25934;-89
2022/10/30 00:59:00;;;;;;;49.95;32.73;;;;;;;13.01;100.00;100919.19;3494585;82;99560;-89
2022/10/30 01:04:02;;;;;;;52.27;31.40;;;;;;;13.10;100.00;100932.11;3473751;83;26583;-89
2022/10/30 01:09:04;;;;;;;50.73;31.75;;;;;;;13.08;100.00;100928.91;3501782;82;99482;-89
2022/10/30 01:14:07;;;;;;;55.95;33.88;;;;;;;13.07;100.00;100922.38;3506503;82;25986;-89
2022/10/30 01:19:17;;;;;;;57.07;31.50;;;;;;;13.04;100.00;100912.11;3500427;82;99513;-90
2022/10/30 01:24:26;;;;;;;61.70;35.25;;;;;;;13.03;100.00;100903.62;3505194;82;26809;-90
2022/10/30 01:29:35;;;;;;;55.90;34.27;;;;;;;13.00;100.00;100883.06;3466681;83;99507;-90
2022/10/30 01:35:02;;;;;;;51.20;32.13;;;;;;;12.98;100.00;100868.82;3506752;82;25900;-89
2022/10/30 01:40:10;;;;;;;51.33;30.43;;;;;;;12.98;100.00;100876.33;3492102;82;99323;-88
2022/10/30 01:45:37;;;;;;;51.20;28.65;;;;;;;12.96;100.00;100898.00;3450477;84;25878;-88
2022/10/30 01:50:56;;;;;;;46.58;28.47;;;;;;;12.96;100.00;100898.00;3466192;83;99414;-88
2022/10/30 01:56:14;;;;;;;42.95;28.47;;;;;;;12.93;100.00;100907.81;3473942;83;26442;-90
2022/10/30 02:01:16;;;;;;;48.17;29.35;;;;;;;12.92;100.00;100905.45;3451143;84;26168;-88
2022/10/30 02:06:17;;;;;;;37.67;25.20;;;;;;;12.89;100.00;100909.77;3441534;84;103328;-89
2022/10/30 02:11:18;;;;;;;41.27;27.47;;;;;;;12.88;100.00;100916.48;3434930;84;33227;-88
2022/10/30 02:16:19;;;;;;;42.13;27.70;;;;;;;12.86;100.00;100917.42;3432277;84;105643;-89
2022/10/30 02:21:19;;;;;;;42.00;26.53;;;;;;;12.82;100.00;100908.30;3449039;84;33764;-88
2022/10/30 02:26:20;;;;;;;49.43;28.50;;;;;;;12.82;100.00;100901.40;3447089;84;99511;-89
2022/10/30 02:31:21;;;;;;;45.63;27.67;;;;;;;12.79;100.00;100904.13;3454074;84;33699;-89
2022/10/30 02:36:22;;;;;;;39.30;26.77;;;;;;;12.75;100.00;100904.10;3439518;84;99407;-89
2022/10/30 02:41:24;;;;;;;40.58;26.35;;;;;;;12.74;100.00;100904.47;3453988;84;33275;-89
2022/10/30 02:46:24;;;;;;;42.95;27.48;;;;;;;12.70;100.00;100914.72;3447929;84;99389;-89
2022/10/30 02:51:25;;;;;;;45.37;29.23;;;;;;;12.67;100.00;100919.03;3444015;84;31701;-89
2022/10/30 02:56:26;;;;;;;42.87;28.30;;;;;;;12.64;100.00;100923.91;3445950;84;99448;-89
2022/10/30 03:01:27;;;;;;;42.93;24.37;;;;;;;12.61;100.00;100912.27;3473317;83;32014;-89
2022/10/30 03:06:28;;;;;;;39.80;25.13;;;;;;;12.59;100.00;100917.95;3446631;83;99424;-90
2022/10/30 03:11:28;;;;;;;41.43;27.10;;;;;;;12.51;100.00;100916.27;3476200;83;31595;-87
2022/10/30 03:16:29;;;;;;;39.60;26.67;;;;;;;12.47;100.00;100913.48;3467268;83;99605;-90
2022/10/30 03:21:30;;;;;;;40.78;27.22;;;;;;;12.42;100.00;100900.01;3472583;83;32084;-90
2022/10/30 03:26:31;;;;;;;42.80;25.23;;;;;;;12.40;100.00;100901.55;3469642;83;99537;-89
2022/10/30 03:31:32;;;;;;;37.00;25.37;;;;;;;12.34;100.00;100899.73;3473726;83;26523;-89
2022/10/30 03:36:33;;;;;;;39.03;25.53;;;;;;;12.32;100.00;100895.77;3468949;83;99445;-89
2022/10/30 03:41:34;;;;;;;38.00;26.13;;;;;;;12.30;100.00;100891.19;3505605;82;25805;-89
2022/10/30 03:46:34;;;;;;;37.00;24.00;;;;;;;12.29;100.00;100915.25;3419150;84;99154;-89
2022/10/30 03:51:35;;;;;;;36.53;24.93;;;;;;;12.29;100.00;100898.69;3445775;84;35088;-87
2022/10/30 03:56:36;;;;;;;38.00;25.07;;;;;;;12.30;100.00;100900.84;3461943;83;99567;-88
2022/10/30 04:01:37;;;;;;;51.90;30.77;;;;;;;12.29;100.00;100898.69;3509469;82;34923;-88
2022/10/30 04:06:38;;;;;;;45.92;30.77;;;;;;;12.29;100.00;100894.55;3501265;82;99436;-88
2022/10/30 04:11:39;;;;;;;40.33;28.10;;;;;;;12.31;100.00;100896.94;3509410;82;34908;-88
2022/10/30 04:16:40;;;;;;;43.17;28.60;;;;;;;12.32;100.00;100899.91;3498092;82;99365;-89
2022/10/30 04:21:42;;;;;;;46.93;29.53;;;;;;;12.35;100.00;100907.41;3510965;82;26397;-89
2022/10/30 04:26:44;;;;;;;41.13;27.60;;;;;;;12.37;100.00;100906.47;3504270;82;99380;-89
2022/10/30 04:31:44;;;;;;;44.80;28.95;;;;;;;12.39;100.00;100895.84;3510021;82;34791;-89
2022/10/30 04:36:45;;;;;;;44.10;30.03;;;;;;;12.40;100.00;100881.66;3501081;82;99048;-88
2022/10/30 04:41:46;;;;;;;44.27;29.47;;;;;;;12.44;100.00;100885.84;3506976;82;27146;-88
2022/10/30 04:46:47;;;;;;;44.00;30.33;;;;;;;12.50;100.00;100896.74;3501867;82;99203;-89
2022/10/30 04:51:48;;;;;;;40.40;27.67;;;;;;;12.51;100.00;100896.38;3508974;82;33082;-89
2022/10/30 04:56:48;;;;;;;39.93;27.77;;;;;;;12.54;100.00;100890.68;3500765;82;99316;-90
2022/10/30 05:01:49;;;;;;;47.37;30.03;;;;;;;12.55;100.00;100896.41;3509163;82;33805;-91
2022/10/30 05:06:50;;;;;;;40.48;27.05;;;;;;;12.57;100.00;100895.42;3500576;82;99465;-89
2022/10/30 05:11:51;;;;;;;40.20;28.30;;;;;;;12.59;100.00;100898.02;3507197;82;28347;-90
2022/10/30 05:16:51;;;;;;;42.00;27.60;;;;;;;12.59;100.00;100898.63;3500089;82;98974;-90
2022/10/30 05:21:52;;;;;;;37.83;27.05;;;;;;;12.60;100.00;100898.83;3509495;82;29629;-90
2022/10/30 05:26:53;;;;;;;44.63;29.93;;;;;;;12.57;100.00;100899.00;3500747;82;99059;-91
2022/10/30 05:31:54;;;;;;;46.63;32.00;;;;;;;12.59;100.00;100893.88;3504508;82;25906;-91
2022/10/30 05:36:55;;;;;;;42.70;27.20;;;;;;;12.59;100.00;100886.97;3499077;82;99367;-91
2022/10/30 05:41:56;;;;;;;35.97;25.67;;;;;;;12.57;100.00;100896.81;3507958;82;26248;-90
2022/10/30 05:46:56;;;;;;;40.05;27.50;;;;;;;12.56;100.00;100900.75;3498559;82;99176;-88
2022/10/30 05:51:57;;;;;;;47.33;31.23;;;;;;;12.54;100.00;100902.50;3511413;82;33335;-88
2022/10/30 05:56:58;;;;;;;46.03;29.13;;;;;;;12.50;100.00;100914.11;3500104;82;99065;-89
2022/10/30 06:01:59;;;;;;;39.53;27.13;;;;;;;12.49;100.00;100908.97;3499867;83;33507;-87
2022/10/30 06:06:59;;;;;;;39.27;27.33;;;;;;;12.48;100.00;100914.28;3492805;83;99465;-89
2022/10/30 06:12:00;;;;;;;40.97;27.13;;;;;;;12.48;100.00;100915.66;3498814;83;33247;-88
2022/10/30 06:17:01;;;;;;;42.37;29.20;;;;;;;12.48;100.00;100910.92;3486934;83;99421;-88
2022/10/30 06:22:02;;;;;;;45.43;29.27;;;;;;;12.48;100.00;100920.58;3494605;83;33291;-88
2022/10/30 06:27:03;;;;;;;55.63;32.10;;;;;;;12.51;100.00;100916.27;3492497;83;99625;-89
2022/10/30 06:32:05;;;;;;;53.93;31.40;;;;;;;12.52;100.00;100919.23;3490387;83;36299;-87
2022/10/30 06:37:05;;;;;;;42.47;28.47;;;;;;;12.55;100.00;100916.54;3487952;83;99368;-88
2022/10/30 06:42:07;;;;;;;44.10;30.57;;;;;;;12.60;100.00;100927.22;3499105;83;31655;-88
2022/10/30 06:47:08;;;;;;;44.47;28.73;;;;;;;12.64;100.00;100934.96;3488535;83;99297;-88
2022/10/30 06:52:09;;;;;;;44.33;32.23;;;;;;;12.70;100.00;100942.33;3497311;83;31611;-89
2022/10/30 06:57:09;;;;;;;42.17;28.97;;;;;;;12.74;100.00;100930.71;3491308;83;99268;-89
2022/10/30 07:02:10;;;;;;;42.60;28.63;;;;;;;12.78;100.00;100929.59;3498581;83;32902;-88
2022/10/30 07:07:13;;;;;;;42.70;27.87;;;;;;;12.80;100.00;100934.75;3492246;83;99210;-87
2022/10/30 07:12:14;;;;;;;43.27;29.43;;;;;;;12.80;100.00;100930.61;3499530;83;32040;-88
2022/10/30 07:17:15;;;;;;;42.65;29.80;;;;;;;12.81;100.00;100934.34;3488286;83;99582;-88
2022/10/30 07:22:15;;;;;;;40.57;30.03;;;;;;;12.88;100.00;100935.02;3498556;83;31661;-88
2022/10/30 07:27:16;;;;;;;43.10;31.00;;;;;;;12.96;100.00;100934.73;3501783;82;99433;-86
2022/10/30 07:32:17;;;;;;;49.63;32.00;;;;;;;13.07;100.00;100939.77;3505383;83;31688;-87
2022/10/30 07:37:18;;;;;;;46.05;31.87;;;;;;;13.21;100.00;100950.15;3496956;83;99495;-86
2022/10/30 07:42:19;;;;;;;49.97;34.37;;;;;;;13.36;100.00;100956.02;3494214;83;25897;-86
2022/10/30 07:47:19;;;;;;;54.23;34.00;;;;;;;13.52;100.00;100958.70;3489062;83;99421;-87
2022/10/30 07:52:21;;;;;;;52.53;34.53;;;;;;;13.65;100.00;100959.19;3503553;83;34839;-87
2022/10/30 07:57:21;;;;;;;55.27;36.17;;;;;;;13.79;100.00;100956.53;3486066;83;99326;-87
2022/10/30 08:02:22;;;;;;;51.80;33.57;;;;;;;13.92;100.00;100950.30;3514870;82;35437;-86
2022/10/30 08:07:23;;;;;;;52.13;34.90;;;;;;;14.04;100.00;100943.03;3490268;82;99506;-87
2022/10/30 08:12:26;;;;;;;52.27;35.65;;;;;;;14.19;100.00;100948.88;3524585;82;35449;-87
2022/10/30 08:17:27;;;;;;;49.10;34.20;;;;;;;14.37;100.00;100937.28;3506448;82;99526;-88
2022/10/30 08:22:28;;;;;;;54.17;36.03;;;;;;;14.54;100.00;100937.93;3526559;82;31337;-88
2022/10/30 08:27:30;;;;;;;53.93;34.80;;;;;;;14.69;100.00;100934.02;3513999;82;99525;-87
2022/10/30 08:32:31;;;;;;;52.20;36.33;;;;;;;14.90;100.00;100927.72;3520130;82;28356;-87
2022/10/30 08:37:31;;;;;;;49.33;33.87;;;;;;;15.05;100.00;100921.79;3497947;83;99570;-88
2022/10/30 08:42:32;;;;;;;48.13;33.05;;;;;;;15.20;100.00;100911.52;3502928;83;35356;-88
2022/10/30 08:47:33;;;;;;;42.00;29.57;;;;;;;15.33;100.00;100920.47;3499094;83;99478;-86
2022/10/30 08:52:34;;;;;;;44.10;31.83;;;;;;;15.46;100.00;100923.60;3500261;83;27143;-88
2022/10/30 08:57:36;;;;;;;39.60;28.43;;;;;;;15.58;100.00;100917.67;3496623;83;99655;-87
2022/10/30 09:02:40;;;;;;;39.23;27.52;;;;;;;15.68;100.00;100925.16;3470616;83;28305;-87
2022/10/30 09:07:41;;;;;;;39.23;28.85;;;;;;;15.81;100.00;100931.89;3445427;84;99551;-86
2022/10/30 09:12:42;;;;;;;35.97;27.10;;;;;;;15.90;100.00;100938.61;3457011;84;32079;-87
2022/10/30 09:17:42;;;;;;;38.53;26.33;;;;;;;15.98;100.00;100931.83;3447366;84;99413;-87
2022/10/30 09:22:43;;;;;;;42.00;28.30;;;;;;;16.06;100.00;100934.79;3450043;84;28140;-87
2022/10/30 09:27:44;;;;;;;37.30;29.13;;;;;;;16.18;100.00;100941.91;3444281;84;99309;-85
2022/10/30 09:32:45;;;;;;;37.20;25.82;;;;;;;16.39;100.00;100932.10;3453738;84;29725;-87
2022/10/30 09:37:46;;;;;;;40.78;26.37;;;;;;;16.46;100.00;100929.31;3448204;84;99465;-87
2022/10/30 09:42:49;;;;;;;39.30;28.83;;;;;;;16.63;100.00;100935.37;3452341;84;27666;-88
2022/10/30 09:48:01;;;;;;;40.65;25.37;;;;;;;16.82;100.00;100931.48;3448310;84;99366;-87
2022/10/30 09:53:08;;;;;;;38.67;26.10;;;;;;;17.05;100.00;100926.16;3457921;84;32710;-87
2022/10/30 09:58:26;;;;;;;38.20;26.25;;;;;;;17.27;100.00;100924.02;3449566;84;99396;-88
2022/10/30 10:04:00;;;;;;;40.48;26.55;;;;;;;17.37;100.00;100905.03;3476951;83;33065;-87
2022/10/30 10:09:09;;;;;;;39.10;26.48;;;;;;;17.48;100.00;100908.53;3460113;82;99243;-88
2022/10/30 10:14:22;;;;;;;36.28;26.12;;;;;;;17.62;100.00;100910.60;3502107;82;32553;-87
2022/10/30 10:19:49;;;;;;;34.73;25.17;;;;;;;17.78;100.00;100903.88;3499448;82;99347;-86
2022/10/30 10:24:50;;;;;;;32.55;23.92;;;;;;;18.01;100.00;100885.10;3481934;82;32365;-87
2022/10/30 10:30:09;;;;;;;36.45;24.40;;;;;;;18.43;100.00;100879.03;3505449;82;99282;-87
2022/10/30 10:35:18;;;;;;;36.08;23.05;;;;;;;18.83;100.00;100875.24;3516616;82;33108;-88
2022/10/30 10:40:46;;;;;;;37.05;23.30;;;;;;;19.09;100.00;100864.67;3503976;82;99395;-88
2022/10/30 10:46:19;;;;;;;36.90;22.45;;;;;;;19.23;100.00;100855.47;3509464;82;32478;-89
2022/10/30 10:51:31;;;;;;;38.70;23.07;;;;;;;19.52;100.00;100852.97;3510419;82;33148;-86
2022/10/30 10:56:37;;;;;;;41.58;22.37;;;;;;;19.84;100.00;100846.17;3472116;83;99613;-87
2022/10/30 11:01:43;;;;;;;32.58;22.77;;;;;;;20.13;98.28;100836.80;3507461;82;32496;-87
2022/10/30 11:06:48;;;;;;;28.20;19.37;;;;;;;20.30;98.01;100845.41;3494571;83;99238;-87
2022/10/30 11:11:52;;;;;;;32.53;21.00;;;;;;;20.38;96.50;100839.83;3503597;83;26840;-86
2022/10/30 11:17:18;;;;;;;32.03;20.75;;;;;;;20.59;96.71;100853.33;3497511;83;99455;-86
2022/10/30 11:22:32;;;;;;;32.85;20.85;;;;;;;20.68;95.13;100849.33;3494399;83;28141;-87
2022/10/30 11:27:33;;;;;;;34.58;21.50;;;;;;;20.80;95.72;100844.44;3488010;83;99245;-87
2022/10/30 11:32:34;;;;;;;32.60;20.65;;;;;;;20.94;93.31;100846.14;3492801;83;33146;-86
2022/10/30 11:37:39;;;;;;;30.25;20.57;;;;;;;21.04;93.36;100840.27;3492975;83;99239;-86
2022/10/30 11:42:54;;;;;;;37.23;22.60;;;;;;;21.18;92.72;100844.13;3497192;83;28777;-86
2022/10/30 11:47:58;;;;;;;41.00;21.70;;;;;;;21.34;91.95;100846.91;3492865;83;99396;-87
2022/10/30 11:53:04;;;;;;;31.70;20.10;;;;;;;21.45;91.83;100849.41;3489732;83;32496;-88
2022/10/30 11:58:10;;;;;;;30.17;19.27;;;;;;;21.47;90.47;100846.98;3485828;83;99250;-88
2022/10/30 12:03:38;;;;;;;29.95;18.65;;;;;;;21.47;90.50;100842.77;3499473;82;27078;-88
2022/10/30 12:08:38;;;;;;;29.40;15.80;;;;;;;21.50;89.44;100846.87;3481611;82;99253;-87
2022/10/30 12:13:39;;;;;;;25.27;14.53;;;;;;;21.50;87.83;100841.88;3506919;82;32464;-86
2022/10/30 12:18:44;;;;;;;28.17;16.30;;;;;;;21.39;86.87;100847.77;3498008;82;99266;-88
2022/10/30 12:23:55;;;;;;;26.40;14.65;;;;;;;21.33;87.23;100842.53;3475236;83;32464;-88
2022/10/30 12:29:04;;;;;;;26.70;14.80;;;;;;;21.39;87.22;100846.38;3501944;82;99179;-87
2022/10/30 12:34:40;;;;;;;34.43;14.45;;;;;;;21.33;85.60;100846.73;3500116;82;26771;-85
2022/10/30 12:39:57;;;;;;;25.40;15.20;;;;;;;21.18;85.40;100839.92;3497891;82;99068;-86
2022/10/30 12:45:10;;;;;;;23.02;15.28;;;;;;;21.08;84.98;100838.17;3506184;82;33198;-87
2022/10/30 12:50:29;;;;;;;24.20;14.15;;;;;;;20.91;85.18;100835.81;3494627;82;99319;-87
2022/10/30 12:55:43;;;;;;;25.60;15.13;;;;;;;20.80;85.54;100836.65;3501792;82;32457;-86
2022/10/30 13:01:00;;;;;;;31.37;17.20;;;;;;;20.73;85.60;100828.44;3498948;82;99109;-87
2022/10/30 13:06:18;;;;;;;26.30;16.35;;;;;;;20.66;85.86;100819.59;3506997;82;32439;-85
2022/10/30 13:11:30;;;;;;;30.10;16.30;;;;;;;20.59;86.18;100812.00;3502936;82;33152;-87
2022/10/30 13:16:31;;;;;;;23.80;16.40;;;;;;;20.49;86.36;100803.25;3496462;82;99262;-87
2022/10/30 13:21:49;;;;;;;25.15;15.70;;;;;;;20.40;86.68;100802.45;3504945;82;32526;-86
2022/10/30 13:26:58;;;;;;;25.70;15.93;;;;;;;20.30;86.89;100794.30;3453417;82;99073;-87
2022/10/30 13:32:26;;;;;;;26.40;15.68;;;;;;;20.19;87.07;100793.74;3505185;82;32414;-86
2022/10/30 13:37:41;;;;;;;32.45;17.40;;;;;;;20.08;87.19;100794.59;3500360;82;99306;-87
2022/10/30 13:43:20;;;;;;;23.55;14.63;;;;;;;19.93;87.08;100791.28;3473130;83;33200;-87
2022/10/30 13:48:46;;;;;;;32.60;18.80;;;;;;;19.81;87.51;100789.16;3497983;82;99350;-87
2022/10/30 13:53:50;;;;;;;;;;;;;;;19.70;88.04;100783.59;3507080;82;27613;-87
2022/10/30 13:59:19;;;;;;;32.00;19.00;;;;;;;19.63;88.10;100788.70;3501517;82;85261;-87
2022/10/30 14:04:35;;;;;;;25.90;17.95;;;;;;;19.55;88.70;100778.11;3511483;82;32963;-87
2022/10/30 14:09:44;;;;;;;32.23;18.90;;;;;;;19.47;88.80;100776.69;3511952;82;98893;-86
2022/10/30 14:14:47;;;;;;;29.98;16.73;;;;;;;19.29;89.09;100773.45;3514428;82;33108;-87
2022/10/30 14:20:20;;;;;;;26.57;19.20;;;;;;;19.17;89.65;100773.44;3487010;82;99120;-87
2022/10/30 14:25:21;;;;;;;25.43;18.25;;;;;;;19.09;89.86;100769.20;3515795;82;32479;-88
2022/10/30 14:30:22;;;;;;;31.65;18.45;;;;;;;18.97;90.03;100771.82;3512644;82;99120;-87
2022/10/30 14:35:36;;;;;;;40.78;19.57;;;;;;;18.83;90.33;100770.66;3518477;82;31733;-88
2022/10/30 14:40:55;;;;;;;30.15;18.67;;;;;;;18.72;90.53;100774.23;3509335;82;98976;-87
2022/10/30 14:46:00;;;;;;;27.00;17.75;;;;;;;18.60;90.75;100774.23;3513390;82;32512;-87
2022/10/30 14:51:08;;;;;;;34.40;18.57;;;;;;;18.48;91.02;100770.62;3512022;82;98689;-88
2022/10/30 14:56:20;;;;;;;30.88;17.42;;;;;;;18.36;91.18;100773.23;3516021;82;32532;-87
2022/10/30 15:01:32;;;;;;;31.62;17.42;;;;;;;18.22;91.52;100771.41;3502609;82;33071;-87
2022/10/30 15:06:48;;;;;;;28.45;19.48;;;;;;;18.07;91.94;100776.99;3486902;83;98968;-87
2022/10/30 15:12:29;;;;;;;33.30;18.87;;;;;;;17.90;92.38;100773.05;3497378;83;27369;-86
2022/10/30 15:17:47;;;;;;;27.95;18.77;;;;;;;17.74;92.89;100777.03;3490017;83;99026;-87
2022/10/30 15:22:53;;;;;;;28.52;19.27;;;;;;;17.58;93.36;100783.20;3494497;83;33175;-88
2022/10/30 15:27:56;;;;;;;30.70;20.32;;;;;;;17.43;93.84;100785.17;3488833;83;99320;-87
2022/10/30 15:32:57;;;;;;;31.90;19.98;;;;;;;17.29;94.12;100779.72;3493631;83;33056;-87
2022/10/30 15:38:06;;;;;;;31.97;18.07;;;;;;;17.13;94.66;100781.67;3491003;83;98894;-86
2022/10/30 15:43:11;;;;;;;30.90;18.95;;;;;;;16.99;95.17;100785.17;3498134;83;32486;-87
2022/10/30 15:48:34;;;;;;;33.43;22.83;;;;;;;16.84;95.41;100787.91;3495088;83;99406;-86
2022/10/30 15:53:39;;;;;;;32.85;22.02;;;;;;;16.68;95.87;100784.25;3499983;83;33066;-87
2022/10/30 15:58:40;;;;;;;37.47;23.73;;;;;;;16.55;96.22;100777.61;3489465;83;98949;-88
2022/10/30 16:03:47;;;;;;;43.60;26.90;;;;;;;16.42;96.54;100788.23;3501893;82;31615;-88
2022/10/30 16:08:48;;;;;;;45.08;31.12;;;;;;;16.30;96.87;100795.63;3503948;82;99424;-87
2022/10/30 16:13:50;;;;;;;34.92;27.02;;;;;;;16.16;97.32;100796.50;3509945;82;32585;-87
2022/10/30 16:18:51;;;;;;;34.43;25.05;;;;;;;16.03;97.77;100799.53;3503394;82;99077;-88
2022/10/30 16:23:55;;;;;;;32.05;23.10;;;;;;;15.89;97.98;100802.98;3511052;82;32480;-90
2022/10/30 16:28:59;;;;;;;37.50;24.40;;;;;;;15.77;98.35;100798.69;3507252;82;99324;-89
2022/10/30 16:34:02;;;;;;;35.17;23.10;;;;;;;15.65;98.63;100794.94;3483716;83;32454;-90
2022/10/30 16:39:03;;;;;;;40.85;24.15;;;;;;;15.54;98.91;100794.80;3505107;82;98881;-90
2022/10/30 16:44:15;;;;;;;39.10;23.27;;;;;;;15.41;99.12;100797.21;3509919;82;29614;-91
2022/10/30 16:49:22;;;;;;;32.00;21.48;;;;;;;15.31;99.45;100795.22;3505294;82;98927;-90
2022/10/30 16:54:36;;;;;;;31.00;21.68;;;;;;;15.20;99.62;100797.22;3510732;82;32728;-90
2022/10/30 16:59:45;;;;;;;31.70;21.55;;;;;;;15.11;100.00;100791.91;3469002;82;99024;-89
2022/10/30 17:05:08;;;;;;;33.35;23.12;;;;;;;15.02;100.00;100795.66;3491991;82;32467;-83
2022/10/30 17:10:34;;;;;;;35.65;25.00;;;;;;;14.93;100.00;100797.45;3452029;83;99635;-89
2022/10/30 17:15:35;;;;;;;37.20;25.02;;;;;;;14.86;100.00;100798.05;3502762;83;32472;-90
2022/10/30 17:20:36;;;;;;;35.97;23.03;;;;;;;14.77;100.00;100799.84;3504765;83;99263;-90
2022/10/30 17:25:39;;;;;;;36.97;24.07;;;;;;;14.69;100.00;100797.46;3503855;83;26843;-89
2022/10/30 17:30:42;;;;;;;35.85;25.70;;;;;;;14.62;100.00;100803.81;3500717;83;99193;-87
2022/10/30 17:35:42;;;;;;;35.15;26.23;;;;;;;14.56;100.00;100797.05;3501808;83;32434;-88
2022/10/30 17:40:43;;;;;;;39.40;26.97;;;;;;;14.50;100.00;100804.78;3497498;83;99149;-89
2022/10/30 17:45:45;;;;;;;40.27;27.70;;;;;;;14.43;100.00;100811.09;3476570;83;26648;-88
2022/10/30 17:50:45;;;;;;;42.00;28.55;;;;;;;14.36;100.00;100808.91;3386789;86;99414;-87
2022/10/30 17:55:52;;;;;;;48.95;33.85;;;;;;;14.32;100.00;100814.44;3498699;83;26736;-88
2022/10/30 18:00:53;;;;;;;;;;;;;;;14.26;100.00;100814.62;3492792;83;99237;-88
2022/10/30 18:05:54;;;;;;;43.83;30.53;;;;;;;14.21;100.00;100808.67;3507654;82;30680;-88
2022/10/30 18:10:55;;;;;;;44.27;31.27;;;;;;;14.13;100.00;100812.00;3471706;83;99021;-89
2022/10/30 18:15:57;;;;;;;48.50;31.60;;;;;;;14.09;100.00;100802.09;3509794;82;26361;-88
2022/10/30 18:20:58;;;;;;;41.70;28.77;;;;;;;14.02;100.00;100805.62;3474195;84;99655;-87
2022/10/30 18:25:59;;;;;;;44.26;28.76;;;;;;;13.96;100.00;100808.56;3508516;82;29704;-88
2022/10/30 18:31:00;;;;;;;41.57;28.83;;;;;;;13.92;100.00;100801.44;3499151;84;99092;-88
2022/10/30 18:36:01;;;;;;;35.27;25.43;;;;;;;13.86;100.00;100807.16;3505092;83;26757;-88
2022/10/30 18:41:03;;;;;;;39.00;28.03;;;;;;;13.80;100.00;100805.34;3501563;83;98965;-88
2022/10/30 18:46:04;;;;;;;44.40;27.90;;;;;;;13.73;100.00;100808.09;3506317;83;25911;-88
2022/10/30 18:51:08;;;;;;;43.83;26.90;;;;;;;13.69;100.00;100800.97;3496210;83;99060;-88
2022/10/30 18:56:09;;;;;;;37.80;25.82;;;;;;;13.61;100.00;100797.95;3506757;82;32476;-89
2022/10/30 19:01:13;;;;;;;40.47;27.87;;;;;;;13.56;100.00;100796.94;3510077;82;29876;-88
2022/10/30 19:06:24;;;;;;;42.00;28.17;;;;;;;13.50;100.00;100788.23;3505908;82;99320;-87
2022/10/30 19:11:25;;;;;;;38.70;27.05;;;;;;;13.45;100.00;100780.30;3504875;82;33647;-86
2022/10/30 19:16:26;;;;;;;38.77;27.50;;;;;;;13.40;100.00;100782.05;3506643;82;99579;-87
2022/10/30 19:21:26;;;;;;;45.43;29.83;;;;;;;13.34;100.00;100787.75;3515203;82;26593;-89
2022/10/30 19:26:27;;;;;;;44.33;30.40;;;;;;;13.28;100.00;100781.00;3505382;82;99360;-88
2022/10/30 19:31:28;;;;;;;41.90;30.47;;;;;;;13.23;100.00;100779.98;3506642;82;25954;-89
2022/10/30 19:36:35;;;;;;;44.17;29.53;;;;;;;13.18;100.00;100787.26;3506083;82;99285;-89
2022/10/30 19:41:37;;;;;;;44.95;29.87;;;;;;;13.10;100.00;100788.41;3510982;82;32497;-89
2022/10/30 19:46:38;;;;;;;43.13;29.85;;;;;;;13.04;100.00;100792.68;3503877;82;99396;-89
2022/10/30 19:51:39;;;;;;;48.37;30.80;;;;;;;12.99;100.00;100794.45;3511130;82;27718;-88
2022/10/30 19:56:42;;;;;;;44.40;31.70;;;;;;;12.94;100.00;100796.16;3470631;82;99534;-88
2022/10/30 20:01:43;;;;;;;48.70;30.53;;;;;;;12.89;100.00;100799.84;3479976;82;28725;-88
2022/10/30 20:06:44;;;;;;;47.93;32.90;;;;;;;12.83;100.00;100803.56;3493968;82;99005;-88
2022/10/30 20:11:46;;;;;;;44.80;30.57;;;;;;;12.77;100.00;100809.82;3498318;83;28684;-88
2022/10/30 20:16:46;;;;;;;44.43;30.57;;;;;;;12.72;100.00;100804.07;3493817;83;99421;-88
2022/10/30 20:21:47;;;;;;;48.17;32.33;;;;;;;12.68;100.00;100811.53;3474935;83;27693;-88
2022/10/30 20:26:49;;;;;;;51.60;33.13;;;;;;;12.64;100.00;100808.54;3495690;83;99454;-88
2022/10/30 20:31:50;;;;;;;46.13;31.63;;;;;;;12.60;100.00;100808.48;3499711;83;26406;-88
2022/10/30 20:36:50;;;;;;;48.57;30.57;;;;;;;12.54;100.00;100809.23;3492725;83;99272;-88
2022/10/30 20:41:51;;;;;;;46.83;30.80;;;;;;;12.50;100.00;100809.20;3499156;83;26798;-87
2022/10/30 20:46:52;;;;;;;45.40;31.57;;;;;;;12.47;100.00;100815.47;3497635;83;99307;-86
2022/10/30 20:51:53;;;;;;;50.30;32.13;;;;;;;12.42;100.00;100808.14;3502738;83;26707;-87
2022/10/30 20:56:54;;;;;;;46.50;29.87;;;;;;;12.36;100.00;100802.73;3486948;83;99417;-86
2022/10/30 21:01:55;;;;;;;41.85;28.32;;;;;;;12.31;100.00;100803.10;3499994;83;26242;-87
2022/10/30 21:06:55;;;;;;;38.43;28.23;;;;;;;12.27;100.00;100806.41;3497467;83;99208;-87
2022/10/30 21:11:56;;;;;;;44.50;26.20;;;;;;;12.18;100.00;100809.47;3500949;83;33187;-87
2022/10/30 21:16:57;;;;;;;41.30;26.97;;;;;;;12.10;100.00;100802.27;3494080;83;99168;-87
2022/10/30 21:21:58;;;;;;;41.33;27.93;;;;;;;12.06;100.00;100801.47;3492253;83;33741;-87
2022/10/30 21:26:59;;;;;;;43.05;28.42;;;;;;;12.03;100.00;100791.17;3492680;83;99365;-86
2022/10/30 21:32:00;;;;;;;41.70;28.17;;;;;;;11.99;100.00;100798.61;3503391;83;33278;-86
2022/10/30 21:37:01;;;;;;;41.10;27.27;;;;;;;11.96;100.00;100795.23;3496183;83;99354;-87
2022/10/30 21:42:02;;;;;;;38.20;25.80;;;;;;;11.92;100.00;100799.91;3497513;83;33266;-90
2022/10/30 21:47:03;;;;;;;38.83;26.33;;;;;;;11.88;100.00;100801.05;3498394;83;99498;-89
2022/10/30 21:52:04;;;;;;;37.83;25.50;;;;;;;11.83;100.00;100804.14;3504015;83;31625;-89
2022/10/30 21:57:05;;;;;;;41.13;25.73;;;;;;;11.80;100.00;100804.88;3496416;83;99517;-88
2022/10/30 22:02:08;;;;;;;43.20;27.70;;;;;;;11.78;100.00;100803.88;3501964;83;33861;-89
2022/10/30 22:07:09;;;;;;;42.03;29.12;;;;;;;11.75;100.00;100800.50;3491828;83;99547;-89
2022/10/30 22:12:10;;;;;;;43.43;28.70;;;;;;;11.71;100.00;100801.03;3502552;83;32832;-89
2022/10/30 22:17:11;;;;;;;39.97;26.97;;;;;;;11.67;100.00;100804.32;3490740;83;99241;-88
2022/10/30 22:22:12;;;;;;;39.90;25.77;;;;;;;11.61;100.00;100808.58;3503463;83;31591;-89
2022/10/30 22:27:13;;;;;;;41.67;26.43;;;;;;;11.60;100.00;100811.70;3493945;83;99306;-88
2022/10/30 22:32:14;;;;;;;43.53;25.70;;;;;;;11.57;100.00;100808.30;3500512;83;31605;-89
2022/10/30 22:37:15;;;;;;;40.00;25.83;;;;;;;11.53;100.00;100806.08;3472086;83;99439;-89
2022/10/30 22:42:15;;;;;;;43.33;25.67;;;;;;;11.50;100.00;100802.70;3508958;83;31676;-89
2022/10/30 22:47:16;;;;;;;42.65;27.07;;;;;;;11.46;100.00;100804.62;3500936;83;99512;-89
2022/10/30 22:52:17;;;;;;;42.07;27.50;;;;;;;11.44;100.00;100812.47;3502790;83;26455;-89
2022/10/30 22:57:18;;;;;;;43.47;29.17;;;;;;;11.41;100.00;100803.56;3497027;83;99103;-89